Cimarron, Kansas
Current Conditions -  °F | °C
As of 7:52 AM on Thursday 29 Jan 2015 (Local Time) from KDDC Reporting Station
Clear Clear  
Wind Chill: 23°   Ceiling: Unl
Heat Index: 33°   Visibility: 10mi
Dew Point: 27°   Wind: 14mph
Humidity: 78%   Direction: 340°NNW
Pressure: 30.42"   Gusts: NA
Location:  37.81°N, 100.35°W
Report Text: KDDC 291352Z AUTO 34012KT 10SM CLR 01/M03 A3042 RMK AO2 SLP307 T00061028
Loading
Personal Weather Stations






























Interactive Weather Map New forecast layout! Learn more

10-Day Weather Forecast

Advertisements
Track Severe Weather on mobile